Time;durP1;ratioP1;P1;durP2;ratioP2;P2;SDS_P1;SDS_P2;PMS_P1;PMS_P2;Temp;Humidity;BMP_temperature;BMP_pressure;BME280_temperature;BME280_humidity;BME280_pressure;Samples;Min_cycle;Max_cycle;Signal;HPM_P1;HPM_P2
2021/11/21 00:00:53;;;;;;;18.63;11.00;;;;;;;8.67;100.00;101375.28;2611969;36;20599;-69
2021/11/21 00:03:21;;;;;;;21.90;10.70;;;;;;;8.65;100.00;101373.69;2611193;31;20050;-68
2021/11/21 00:05:50;;;;;;;18.85;10.40;;;;;;;8.65;100.00;101387.94;2609836;36;20141;-67
2021/11/21 00:08:18;;;;;;;20.77;10.05;;;;;;;8.57;100.00;101384.97;2611845;31;20521;-68
2021/11/21 00:10:59;;;;;;;20.30;10.52;;;;;;;8.58;100.00;101381.31;2611267;36;20705;-68
2021/11/21 00:13:28;;;;;;;21.33;11.13;;;;;;;8.54;100.00;101382.50;2608140;36;20031;-68
2021/11/21 00:15:56;;;;;;;19.38;10.40;;;;;;;8.51;100.00;101371.97;2607417;36;20222;-68
2021/11/21 00:18:25;;;;;;;21.90;10.43;;;;;;;8.52;100.00;101371.88;2607227;36;20680;-67
2021/11/21 00:20:54;;;;;;;28.33;12.38;;;;;;;8.51;100.00;101363.94;2607806;36;20125;-68
2021/11/21 00:23:22;;;;;;;21.95;10.95;;;;;;;8.56;100.00;101356.41;2610055;36;20038;-68
2021/11/21 00:25:51;;;;;;;22.10;11.38;;;;;;;8.51;100.00;101353.19;2609384;36;21047;-68
2021/11/21 00:29:10;;;;;;;20.00;10.20;;;;;;;8.48;100.00;101348.94;2607681;36;20042;-68
2021/11/21 00:40:31;;;;;;;27.08;12.27;;;;;;;8.49;100.00;101339.91;2610233;36;20046;-69
2021/11/21 00:43:11;;;;;;;24.77;12.95;;;;;;;8.47;100.00;101328.44;2612691;36;20126;-67
2021/11/21 00:48:47;;;;;;;36.38;14.50;;;;;;;8.47;100.00;101325.75;2628067;36;20038;-69
2021/11/21 00:51:26;;;;;;;25.25;12.43;;;;;;;8.46;100.00;101326.72;2611510;36;20038;-68
2021/11/21 00:54:27;;;;;;;28.52;12.80;;;;;;;8.46;100.00;101326.72;2611740;36;20034;-67
2021/11/21 00:56:56;;;;;;;34.45;15.43;;;;;;;8.47;100.00;101324.91;2611627;36;20134;-68
2021/11/21 00:59:25;;;;;;;27.70;14.43;;;;;;;8.46;100.00;101317.81;2611859;36;20125;-67
2021/11/21 01:01:55;;;;;;;25.98;14.15;;;;;;;8.46;100.00;101317.81;2611441;36;20146;-67
2021/11/21 01:04:23;;;;;;;25.27;13.60;;;;;;;8.51;100.00;101315.63;2611103;36;21934;-68
2021/11/21 01:07:21;;;;;;;28.30;14.05;;;;;;;8.48;100.00;101311.38;2610975;36;20046;-70
2021/11/21 01:16:05;;;;;;;35.58;15.70;;;;;;;8.46;100.00;101299.88;2610083;36;20035;-68
2021/11/21 01:18:54;;;;;;;32.22;15.23;;;;;;;8.44;100.00;101303.63;2611414;36;20039;-70
2021/11/21 01:24:37;;;;;;;39.97;16.83;;;;;;;8.41;100.00;101294.81;2610901;31;20038;-68
2021/11/21 01:41:19;;;;;;;45.65;21.30;;;;;;;8.42;100.00;101285.81;2610301;36;20035;-68
2021/11/21 01:50:07;;;;;;;49.17;21.58;;;;;;;8.48;100.00;101281.00;2611698;36;20501;-67
2021/11/21 01:58:32;;;;;;;55.22;24.33;;;;;;;8.45;100.00;101265.13;2606367;31;20474;-69
2021/11/21 02:04:14;;;;;;;58.20;26.25;;;;;;;8.51;100.00;101259.31;2611191;31;20019;-68
2021/11/21 02:07:30;;;;;;;60.83;28.77;;;;;;;8.47;100.00;101260.53;2611974;36;20594;-68
2021/11/21 02:13:17;;;;;;;65.90;33.00;;;;;;;8.43;100.00;101241.06;2628738;36;20041;-68
2021/11/21 02:16:08;;;;;;;67.35;34.60;;;;;;;8.47;100.00;101236.38;2610297;36;20057;-68
2021/11/21 02:18:36;;;;;;;74.53;33.03;;;;;;;8.50;100.00;101234.31;2611066;31;20034;-70
2021/11/21 02:24:47;;;;;;;65.95;33.20;;;;;;;8.42;100.00;101221.44;2610312;36;20037;-68
2021/11/21 02:30:32;;;;;;;70.38;35.28;;;;;;;8.49;100.00;101212.97;2609043;36;20034;-69
2021/11/21 02:33:09;;;;;;;84.72;36.75;;;;;;;8.45;100.00;101209.66;2610955;36;20423;-68
2021/11/21 02:35:40;;;;;;;77.63;34.25;;;;;;;8.49;100.00;101215.66;2611279;36;20620;-69
2021/11/21 02:38:47;;;;;;;76.38;37.63;;;;;;;8.42;100.00;101204.47;2610644;36;20062;-68
2021/11/21 02:47:25;;;;;;;71.35;34.42;;;;;;;8.50;100.00;101190.53;2610667;36;20038;-68
2021/11/21 02:52:49;;;;;;;72.75;34.92;;;;;;;8.49;100.00;101183.47;2610863;36;20039;-70
2021/11/21 02:58:32;;;;;;;70.32;32.92;;;;;;;8.50;100.00;101190.53;2611200;31;20045;-69
2021/11/21 03:01:08;;;;;;;68.55;33.15;;;;;;;8.50;100.00;101182.50;2611912;36;20034;-71
2021/11/21 03:03:37;;;;;;;71.43;32.50;;;;;;;8.50;100.00;101186.03;2611664;36;20035;-70
2021/11/21 03:09:10;;;;;;;69.63;32.78;;;;;;;8.52;100.00;101172.50;2627126;36;20096;-69
2021/11/21 03:11:38;;;;;;;65.72;31.75;;;;;;;8.56;100.00;101173.97;2609705;36;20065;-70
2021/11/21 03:14:41;;;;;;;68.70;31.60;;;;;;;8.55;100.00;101169.56;2611378;36;20038;-70
2021/11/21 03:20:04;;;;;;;69.80;32.22;;;;;;;8.58;100.00;101170.22;2610970;39;20595;-70
2021/11/21 03:49:53;;;;;;;40.25;20.98;;;;;;;8.77;100.00;101183.09;2610397;36;21235;-71
2021/11/21 04:14:10;;;;;;;13.40;4.73;;;;;;;8.76;100.00;101175.16;2128310;31;27949680;-69
2021/11/21 04:44:11;;;;;;;4.22;1.60;;;;;;;8.88;100.00;101176.06;2612817;31;20030;-71
2021/11/21 05:21:05;;;;;;;2.63;1.65;;;;;;;8.70;100.00;101151.47;2612456;36;20168;-69
2021/11/21 05:42:11;;;;;;;4.07;1.10;;;;;;;8.62;100.00;101160.09;2610029;36;20045;-68
2021/11/21 05:51:18;;;;;;;7.50;1.40;;;;;;;8.53;100.00;101153.59;2627918;36;20034;-69
2021/11/21 05:53:46;;;;;;;5.22;1.10;;;;;;;8.55;100.00;101153.47;2609656;31;20041;-68
2021/11/21 06:05:41;;;;;;;6.88;1.10;;;;;;;8.46;100.00;101156.88;2608999;31;20038;-68
2021/11/21 06:11:51;;;;;;;7.32;1.80;;;;;;;8.50;100.00;101158.34;2610067;54;20586;-68
2021/11/21 06:17:27;;;;;;;8.05;1.45;;;;;;;8.46;100.00;101159.53;2608587;36;20055;-68
2021/11/21 06:20:09;;;;;;;10.00;1.40;;;;;;;8.42;100.00;101158.88;2608369;54;20030;-68
2021/11/21 06:23:15;;;;;;;5.93;1.70;;;;;;;8.37;100.00;101155.69;2611416;36;20547;-67
2021/11/21 07:28:20;;;;;;;18.52;3.30;;;;;;;7.67;100.00;101179.50;2614314;31;20629;-67
2021/11/21 07:34:29;;;;;;;9.25;2.00;;;;;;;7.52;100.00;101193.97;2612544;36;20585;-68
2021/11/21 07:37:01;;;;;;;8.60;3.40;;;;;;;7.41;100.00;101191.19;2613229;36;20064;-66
2021/11/21 07:39:58;;;;;;;15.85;3.55;;;;;;;7.29;100.00;101187.56;2614733;31;20031;-69
2021/11/21 07:45:14;;;;;;;7.75;2.42;;;;;;;7.19;100.00;101187.34;2613835;54;20066;-68
2021/11/21 07:48:01;;;;;;;16.58;3.08;;;;;;;7.16;100.00;101192.91;2614763;36;20121;-66
2021/11/21 08:00:06;;;;;;;6.00;1.52;;;;;;;7.07;100.00;101204.25;2615411;36;20449;-67
2021/11/21 08:10:52;;;;;;;9.10;2.10;;;;;;;6.93;100.00;101203.34;2613651;36;20517;-66
2021/11/21 08:22:08;;;;;;;10.32;1.48;;;;;;;6.73;100.00;101223.44;2610059;31;20037;-69
2021/11/21 08:27:49;;;;;;;9.35;1.48;;;;;;;6.61;100.00;101230.47;2611243;36;20443;-67
2021/11/21 08:30:18;;;;;;;8.95;1.40;;;;;;;6.60;100.00;101231.41;2609510;36;20038;-68
2021/11/21 08:35:28;;;;;;;12.30;3.50;;;;;;;6.58;100.00;101225.31;2610796;36;20039;-68
2021/11/21 08:41:00;;;;;;;12.20;2.35;;;;;;;6.59;100.00;101236.84;2629166;36;19974;-67
2021/11/21 08:43:49;;;;;;;14.18;2.60;;;;;;;6.64;100.00;101235.59;2610144;36;20582;-68
2021/11/21 08:49:20;;;;;;;12.23;2.10;;;;;;;6.72;100.00;101236.91;2609049;36;20034;-69
2021/11/21 08:58:04;;;;;;;10.45;1.83;;;;;;;6.83;100.00;101239.72;2610175;36;20061;-68
2021/11/21 09:00:33;;;;;;;8.35;2.00;;;;;;;6.84;100.00;101236.06;2610745;36;20038;-69
2021/11/21 09:03:22;;;;;;;10.90;2.13;;;;;;;6.94;100.00;101234.50;2611836;36;20198;-67
2021/11/21 09:08:58;;;;;;;7.55;2.10;;;;;;;6.95;100.00;101238.91;2612540;36;20034;-68
2021/11/21 09:11:47;;;;;;;13.20;2.50;;;;;;;7.03;100.00;101235.69;2612058;36;20114;-67
2021/11/21 09:16:59;;;;;;;11.55;2.03;;;;;;;7.08;100.00;101232.72;2611479;36;20038;-67
2021/11/21 09:19:59;;;;;;;14.65;2.08;;;;;;;7.14;100.00;101243.00;2611662;36;20150;-68
2021/11/21 09:23:12;;;;;;;12.75;2.20;;;;;;;7.20;100.00;101245.28;2611152;36;20031;-69
2021/11/21 09:25:50;;;;;;;8.25;1.80;;;;;;;7.21;100.00;101241.63;2611823;36;20030;-69
2021/11/21 09:31:38;;;;;;;12.80;2.00;;;;;;;7.33;100.00;101251.50;2611257;36;20604;-69
2021/11/21 09:34:06;;;;;;;15.27;2.72;;;;;;;7.33;100.00;101243.47;2610458;36;20034;-68
2021/11/21 09:36:36;;;;;;;10.02;1.98;;;;;;;7.36;100.00;101243.25;2611449;36;20593;-68
2021/11/21 09:39:06;;;;;;;10.48;1.70;;;;;;;7.44;100.00;101241.88;2610750;31;20031;-67
2021/11/21 09:41:34;;;;;;;15.82;2.60;;;;;;;7.55;100.00;101236.59;2628885;36;20702;-68
2021/11/21 09:44:02;;;;;;;14.63;3.20;;;;;;;7.54;100.00;101234.91;2611098;36;20133;-69
2021/11/21 09:46:31;;;;;;;11.73;1.75;;;;;;;7.53;100.00;101239.38;2612036;36;20038;-67
2021/11/21 09:54:30;;;;;;;6.00;1.98;;;;;;;7.69;100.00;101238.31;2611204;36;20034;-68
2021/11/21 09:56:59;;;;;;;8.10;1.90;;;;;;;7.78;100.00;101236.81;2610510;36;20159;-69
2021/11/21 09:59:53;;;;;;;11.45;2.20;;;;;;;7.77;100.00;101240.47;2611334;31;20527;-67
2021/11/21 10:02:24;;;;;;;8.00;2.20;;;;;;;7.87;100.00;101241.53;2610435;36;20038;-68
2021/11/21 10:04:55;;;;;;;15.63;2.15;;;;;;;7.92;100.00;101242.06;2610554;36;20562;-67
2021/11/21 10:07:28;;;;;;;10.38;2.10;;;;;;;7.87;100.00;101237.00;2611180;36;20134;-69
2021/11/21 10:10:07;;;;;;;9.43;1.92;;;;;;;7.95;100.00;101241.84;2611525;36;20072;-67
2021/11/21 10:12:38;;;;;;;12.05;2.47;;;;;;;8.02;100.00;101240.44;2611155;36;20045;-68
2021/11/21 10:15:20;;;;;;;;;;;;;;;;;;;;;
2021/11/21 10:17:52;;;;;;;11.00;1.80;;;;;;;8.02;100.00;101235.06;2611287;36;20057;-68
2021/11/21 10:20:26;;;;;;;9.75;1.73;;;;;;;8.09;100.00;101237.31;2611635;36;20672;-68
2021/11/21 10:23:07;;;;;;;8.07;1.50;;;;;;;8.07;100.00;101232.91;2610454;36;20076;-67
2021/11/21 10:25:48;;;;;;;12.52;1.90;;;;;;;8.13;100.00;101231.63;2611370;36;20031;-67
2021/11/21 10:31:19;;;;;;;8.88;1.65;;;;;;;8.21;100.00;101231.91;2612877;36;20414;-67
2021/11/21 10:34:02;;;;;;;12.18;1.65;;;;;;;8.26;100.00;101223.53;2610635;36;20030;-67
2021/11/21 10:36:40;;;;;;;13.82;1.95;;;;;;;8.35;100.00;101233.59;2611834;36;20068;-68
2021/11/21 10:39:33;;;;;;;9.17;1.57;;;;;;;8.44;100.00;101228.53;2626908;36;20038;-67
2021/11/21 10:44:41;;;;;;;8.98;1.73;;;;;;;8.39;100.00;101229.72;2612021;36;20447;-68
2021/11/21 10:52:51;;;;;;;7.45;1.83;;;;;;;8.54;100.00;101221.53;2610430;36;20082;-68
2021/11/21 10:55:19;;;;;;;8.43;1.60;;;;;;;8.54;100.00;101227.75;2611303;36;20157;-68
2021/11/21 10:58:10;;;;;;;6.03;1.80;;;;;;;8.61;100.00;101219.25;2612487;36;20736;-67
2021/11/21 11:00:42;;;;;;;7.97;1.63;;;;;;;8.75;100.00;101216.38;2629502;36;20578;-67
2021/11/21 11:03:32;;;;;;;7.13;1.67;;;;;;;8.85;100.00;101217.41;2611824;36;20382;-68
2021/11/21 11:06:33;;;;;;;7.95;1.50;;;;;;;8.87;100.00;101217.28;2629539;36;20054;-66
2021/11/21 11:09:40;;;;;;;11.32;2.10;;;;;;;8.83;100.00;101218.47;2629419;36;20030;-67
2021/11/21 11:12:38;;;;;;;8.75;1.60;;;;;;;8.93;100.00;101224.88;2610279;31;20078;-68
2021/11/21 11:15:15;;;;;;;13.05;1.77;;;;;;;8.86;100.00;101220.94;2610219;36;20071;-68
2021/11/21 11:17:44;;;;;;;10.55;1.50;;;;;;;8.87;100.00;101225.34;2610047;36;20146;-70
2021/11/21 11:20:15;;;;;;;7.00;1.83;;;;;;;8.85;100.00;101222.78;2610474;36;20165;-70
2021/11/21 11:22:45;;;;;;;8.60;2.05;;;;;;;8.92;100.00;101225.84;2611313;36;20807;-69
2021/11/21 11:25:16;;;;;;;6.43;1.48;;;;;;;8.79;100.00;101217.88;2611946;36;20041;-69
2021/11/21 11:27:49;;;;;;;7.53;1.90;;;;;;;8.80;100.00;101232.13;2611709;36;20030;-70
2021/11/21 11:30:28;;;;;;;7.00;1.38;;;;;;;8.86;100.00;101223.63;2612050;36;20069;-69
2021/11/21 11:33:07;;;;;;;9.25;1.70;;;;;;;8.79;100.00;101222.38;2611411;36;20069;-70
2021/11/21 11:35:39;;;;;;;9.38;1.45;;;;;;;8.83;100.00;101218.47;2611129;36;20038;-70
2021/11/21 11:38:17;;;;;;;10.73;2.08;;;;;;;8.80;100.00;101218.72;2611713;36;20042;-70
2021/11/21 11:40:53;;;;;;;6.70;1.38;;;;;;;8.75;100.00;101222.59;2612023;36;20196;-70
2021/11/21 11:43:30;;;;;;;11.52;1.80;;;;;;;8.69;100.00;101216.84;2611946;36;20045;-70
2021/11/21 11:46:04;;;;;;;6.90;1.17;;;;;;;8.70;100.00;101223.91;2612173;36;20173;-69
2021/11/21 11:48:34;;;;;;;10.65;1.40;;;;;;;8.64;100.00;101224.38;2611917;31;20058;-70
2021/11/21 11:51:05;;;;;;;7.45;1.50;;;;;;;8.84;100.00;101221.06;2612096;36;20042;-69
2021/11/21 11:53:39;;;;;;;8.07;1.58;;;;;;;8.87;100.00;101220.81;2612905;36;20125;-70
2021/11/21 11:56:18;;;;;;;5.63;1.55;;;;;;;8.73;100.00;101212.94;2613149;36;20141;-70
2021/11/21 11:58:48;;;;;;;9.32;2.13;;;;;;;8.80;100.00;101216.88;2612853;31;20655;-70
2021/11/21 12:01:56;;;;;;;14.90;4.57;;;;;;;8.77;100.00;101226.03;2612584;36;20069;-71
2021/11/21 12:04:53;;;;;;;9.60;3.83;;;;;;;8.82;100.00;101219.44;2611984;36;20091;-68
2021/11/21 12:07:26;;;;;;;8.77;1.80;;;;;;;8.89;100.00;101223.38;2612839;36;20045;-71
2021/11/21 12:10:00;;;;;;;5.18;1.42;;;;;;;8.91;100.00;101216.09;2612865;36;20066;-70
2021/11/21 12:13:02;;;;;;;7.00;1.20;;;;;;;8.95;100.00;101220.22;2612743;36;20030;-70
2021/11/21 12:15:34;;;;;;;6.28;1.30;;;;;;;8.90;100.00;101219.72;2613126;36;20034;-70
2021/11/21 12:18:08;;;;;;;8.15;1.30;;;;;;;8.96;100.00;101223.78;2612532;36;20050;-70
2021/11/21 12:20:54;;;;;;;6.65;2.22;;;;;;;8.97;100.00;101220.97;2613085;31;20031;-69
2021/11/21 12:23:53;;;;;;;4.82;1.35;;;;;;;8.92;100.00;101217.78;2613147;36;20118;-70
2021/11/21 12:26:26;;;;;;;7.43;1.37;;;;;;;9.06;100.00;101219.44;2612526;36;20030;-70
2021/11/21 12:29:00;;;;;;;8.55;1.48;;;;;;;9.14;100.00;101210.78;2612804;36;20283;-69
2021/11/21 12:31:39;;;;;;;7.63;1.27;;;;;;;9.05;100.00;101213.19;2612313;36;20126;-71
2021/11/21 12:34:36;;;;;;;9.88;1.50;;;;;;;8.98;100.00;101211.09;2611576;36;20072;-70
2021/11/21 12:37:26;;;;;;;4.63;1.35;;;;;;;8.95;100.00;101209.50;2612644;36;20046;-70
2021/11/21 12:39:57;;;;;;;6.70;1.55;;;;;;;8.92;100.00;101212.41;2613428;31;20065;-70
2021/11/21 12:42:28;;;;;;;10.40;2.15;;;;;;;8.96;100.00;101218.41;2612516;36;20030;-70
2021/11/21 12:45:08;;;;;;;10.57;1.88;;;;;;;8.96;100.00;101210.38;2612871;36;20030;-70
2021/11/21 12:47:37;;;;;;;6.93;1.50;;;;;;;9.03;100.00;101222.34;2612184;36;20034;-69
2021/11/21 12:50:18;;;;;;;6.25;1.60;;;;;;;8.95;100.00;101217.53;2612528;36;20073;-70
2021/11/21 12:53:05;;;;;;;8.93;2.08;;;;;;;8.97;100.00;101226.34;2613008;36;20035;-71
2021/11/21 12:55:37;;;;;;;9.77;1.77;;;;;;;8.89;100.00;101218.00;2613115;36;20034;-70
2021/11/21 12:58:06;;;;;;;8.80;1.50;;;;;;;8.84;100.00;101214.84;2612240;36;20034;-70
2021/11/21 13:00:37;;;;;;;7.95;1.63;;;;;;;8.93;100.00;101222.19;2612730;36;20031;-71
2021/11/21 13:03:10;;;;;;;7.30;1.80;;;;;;;8.80;100.00;101218.72;2612130;36;20030;-70
2021/11/21 13:05:43;;;;;;;8.85;1.33;;;;;;;8.79;100.00;101219.69;2612772;36;20057;-69
2021/11/21 13:08:20;;;;;;;7.25;1.55;;;;;;;8.75;100.00;101222.59;2611709;36;20034;-70
2021/11/21 13:10:50;;;;;;;8.13;1.40;;;;;;;8.75;100.00;101216.38;2612810;31;20035;-70
2021/11/21 13:13:21;;;;;;;9.95;1.60;;;;;;;8.82;100.00;101222.13;2612495;36;20034;-69
2021/11/21 13:15:50;;;;;;;5.28;1.20;;;;;;;8.85;100.00;101217.41;2612688;36;20570;-70
2021/11/21 13:18:21;;;;;;;6.93;1.38;;;;;;;8.83;100.00;101222.00;2612123;31;20055;-69
2021/11/21 13:20:54;;;;;;;7.57;1.50;;;;;;;8.88;100.00;101221.69;2612652;36;20141;-71
2021/11/21 13:23:25;;;;;;;9.02;1.60;;;;;;;8.97;100.00;101218.31;2613255;31;20413;-71
2021/11/21 13:25:56;;;;;;;5.75;1.33;;;;;;;9.10;100.00;101226.28;2612852;36;20122;-69
2021/11/21 13:28:34;;;;;;;5.65;1.63;;;;;;;9.21;100.00;101233.50;2612282;36;20038;-70
2021/11/21 13:31:06;;;;;;;7.80;1.88;;;;;;;9.28;100.00;101229.38;2613082;31;20454;-70
2021/11/21 13:33:35;;;;;;;9.38;1.50;;;;;;;9.24;100.00;101227.88;2612421;31;20034;-68
2021/11/21 13:36:12;;;;;;;4.70;1.20;;;;;;;9.08;100.00;101239.81;2612283;36;20578;-70
2021/11/21 13:38:41;;;;;;;4.75;1.20;;;;;;;8.74;100.00;101230.75;2612520;31;20034;-70
2021/11/21 13:41:11;;;;;;;5.32;1.30;;;;;;;8.70;100.00;101237.31;2612651;36;20080;-70
2021/11/21 13:43:43;;;;;;;5.53;1.25;;;;;;;8.56;100.00;101243.72;2613129;36;20030;-69
2021/11/21 13:46:12;;;;;;;6.38;1.17;;;;;;;8.42;100.00;101248.25;2612982;36;20035;-70
2021/11/21 13:48:42;;;;;;;11.50;1.27;;;;;;;8.40;100.00;101250.19;2611998;36;20117;-71
2021/11/21 13:51:26;;;;;;;9.35;1.60;;;;;;;8.33;100.00;101250.75;2612585;36;20053;-69
2021/11/21 13:53:56;;;;;;;6.97;1.45;;;;;;;8.34;100.00;101250.63;2612414;36;20030;-70
2021/11/21 13:56:24;;;;;;;;;;;;;;;8.25;100.00;101256.69;2612469;36;20576;-69
2021/11/21 13:58:53;;;;;;;7.35;1.33;;;;;;;8.29;100.00;101252.81;2612286;36;19974;-72
2021/11/21 14:01:23;;;;;;;3.67;1.13;;;;;;;8.41;100.00;101254.59;2613563;31;20519;-69
2021/11/21 14:03:54;;;;;;;6.60;1.65;;;;;;;8.32;100.00;101260.63;2613253;31;20506;-70
2021/11/21 14:06:35;;;;;;;8.50;1.42;;;;;;;8.31;100.00;101261.59;2612224;36;20168;-69
2021/11/21 14:09:09;;;;;;;7.40;1.35;;;;;;;8.43;100.00;101267.88;2612732;36;20051;-72
2021/11/21 14:11:41;;;;;;;10.60;1.55;;;;;;;8.54;100.00;101268.00;2612550;31;20035;-72
2021/11/21 14:14:11;;;;;;;5.35;1.80;;;;;;;8.54;100.00;101267.16;2612044;36;20034;-70
2021/11/21 14:16:45;;;;;;;11.35;1.83;;;;;;;8.49;100.00;101274.66;2612622;36;20537;-72
2021/11/21 14:19:28;;;;;;;8.63;1.80;;;;;;;8.47;100.00;101276.63;2612208;36;20149;-69
2021/11/21 14:22:16;;;;;;;10.75;5.00;;;;;;;8.46;100.00;101281.09;2612345;36;20100;-69
2021/11/21 14:24:46;;;;;;;8.13;2.17;;;;;;;8.41;100.00;101278.72;2612758;36;20042;-69
2021/11/21 14:27:19;;;;;;;9.77;4.50;;;;;;;8.35;100.00;101287.22;2611921;36;20547;-69
2021/11/21 14:29:55;;;;;;;6.95;1.80;;;;;;;8.31;100.00;101279.53;2613276;36;20036;-70
2021/11/21 14:32:23;;;;;;;16.98;14.45;;;;;;;8.28;100.00;101287.78;2612409;31;20498;-69
2021/11/21 14:34:51;;;;;;;11.30;6.18;;;;;;;8.24;100.00;101279.97;2612548;36;20122;-70
2021/11/21 14:37:24;;;;;;;40.17;30.13;;;;;;;8.16;100.00;101290.38;2612089;31;20642;-71
2021/11/21 14:39:55;;;;;;;16.98;10.65;;;;;;;8.15;100.00;101303.91;2612468;36;20126;-71
2021/11/21 14:42:27;;;;;;;13.98;6.15;;;;;;;8.12;100.00;101304.13;2611998;36;20034;-69
2021/11/21 14:44:56;;;;;;;13.88;5.25;;;;;;;8.09;100.00;101301.66;2612610;36;20130;-70
2021/11/21 14:47:24;;;;;;;15.40;8.48;;;;;;;8.07;100.00;101301.75;2612008;36;20153;-71
2021/11/21 14:49:52;;;;;;;33.05;26.65;;;;;;;8.07;100.00;101299.09;2612718;31;20650;-70
2021/11/21 14:52:23;;;;;;;9.38;2.35;;;;;;;8.00;100.00;101297.81;2611944;31;20157;-70
2021/11/21 14:54:53;;;;;;;32.13;20.00;;;;;;;7.95;100.00;101302.63;2612567;36;20038;-69
2021/11/21 14:57:24;;;;;;;14.35;2.10;;;;;;;7.93;100.00;101294.69;2612280;36;20200;-69
2021/11/21 14:59:52;;;;;;;10.75;4.03;;;;;;;7.91;100.00;101299.31;2612623;36;20129;-69
2021/11/21 15:02:21;;;;;;;11.63;4.55;;;;;;;7.89;100.00;101299.41;2612071;36;20681;-70
2021/11/21 15:04:49;;;;;;;15.00;6.43;;;;;;;7.82;100.00;101308.00;2612395;36;20166;-70
2021/11/21 15:07:17;;;;;;;10.73;5.97;;;;;;;7.76;100.00;101314.63;2612093;36;20600;-72
2021/11/21 15:09:48;;;;;;;22.70;12.27;;;;;;;7.69;100.00;101316.88;2612350;36;20173;-69
2021/11/21 15:12:16;;;;;;;8.18;2.47;;;;;;;7.75;100.00;101323.63;2612237;36;20126;-69
2021/11/21 15:14:44;;;;;;;9.27;2.22;;;;;;;7.65;100.00;101335.94;2612245;36;20126;-70
2021/11/21 15:17:13;;;;;;;48.40;42.47;;;;;;;7.59;100.00;101333.69;2611312;36;20030;-69
2021/11/21 15:19:41;;;;;;;15.98;11.27;;;;;;;7.54;100.00;101342.91;2611088;36;20035;-69
2021/11/21 15:22:09;;;;;;;10.15;2.65;;;;;;;7.48;100.00;101339.75;2612604;36;20471;-69
2021/11/21 15:24:37;;;;;;;20.55;7.75;;;;;;;7.48;100.00;101347.81;2612069;36;20042;-71
2021/11/21 15:27:09;;;;;;;36.17;17.20;;;;;;;7.45;100.00;101348.00;2612245;36;20157;-69
2021/11/21 15:29:38;;;;;;;16.00;7.03;;;;;;;7.33;100.00;101350.56;2612774;36;20031;-70
2021/11/21 15:32:07;;;;;;;26.33;13.83;;;;;;;7.40;100.00;101360.88;2612879;31;20149;-69
2021/11/21 15:34:36;;;;;;;13.25;2.45;;;;;;;7.45;100.00;101364.09;2613025;36;20201;-69
2021/11/21 15:37:04;;;;;;;19.50;6.75;;;;;;;7.35;100.00;101359.34;2612722;36;20030;-70
2021/11/21 15:39:33;;;;;;;24.77;14.88;;;;;;;7.28;100.00;101351.84;2613049;36;20173;-68
2021/11/21 15:42:02;;;;;;;13.93;5.93;;;;;;;7.30;100.00;101357.94;2613379;36;20034;-69
2021/11/21 15:47:09;;;;;;;19.38;10.13;;;;;;;7.23;100.00;101370.91;2612200;36;20030;-71
2021/11/21 15:49:37;;;;;;;18.25;7.68;;;;;;;7.20;100.00;101363.06;2613192;36;20042;-69
2021/11/21 15:52:06;;;;;;;19.73;10.60;;;;;;;7.18;100.00;101368.53;2612679;36;20129;-71
2021/11/21 15:54:36;;;;;;;16.67;6.95;;;;;;;7.06;100.00;101371.16;2613739;36;20069;-69
2021/11/21 15:59:30;;;;;;;17.13;6.50;;;;;;;7.03;100.00;101374.03;2612872;36;20031;-70
2021/11/21 16:01:58;;;;;;;42.70;19.73;;;;;;;6.95;100.00;101388.75;2613048;31;20433;-72
2021/11/21 16:04:29;;;;;;;24.25;11.23;;;;;;;6.93;100.00;101390.66;2613909;31;20535;-69
2021/11/21 16:06:57;;;;;;;23.05;6.38;;;;;;;6.89;100.00;101391.84;2612246;36;20130;-70
2021/11/21 16:09:26;;;;;;;14.20;2.10;;;;;;;6.89;100.00;101393.63;2612949;36;20030;-71
2021/11/21 16:11:55;;;;;;;;;;;;;;;6.89;100.00;101397.19;2612685;36;20034;-69
2021/11/21 16:14:24;;;;;;;110.27;53.57;;;;;;;6.76;100.00;101398.94;2612828;36;20049;-69
2021/11/21 16:16:53;;;;;;;34.70;19.47;;;;;;;6.59;100.00;101402.69;2612478;36;20919;-70
2021/11/21 16:19:21;;;;;;;40.53;22.83;;;;;;;6.62;100.00;101406.00;2613172;36;20729;-70
2021/11/21 16:21:52;;;;;;;31.73;15.05;;;;;;;6.50;100.00;101414.81;2612793;31;20669;-70
2021/11/21 16:24:20;;;;;;;112.55;51.67;;;;;;;6.56;100.00;101409.06;2612843;36;20042;-71
2021/11/21 16:26:50;;;;;;;208.95;108.65;;;;;;;6.58;100.00;101411.66;2612950;36;20057;-70
2021/11/21 16:29:18;;;;;;;21.42;9.18;;;;;;;6.47;100.00;101415.00;2612889;36;20538;-69
2021/11/21 16:31:48;;;;;;;29.17;14.37;;;;;;;6.26;100.00;101418.06;2612839;36;20590;-72
2021/11/21 16:34:18;;;;;;;16.85;6.60;;;;;;;6.22;100.00;101424.53;2612294;36;20104;-71
2021/11/21 16:36:52;;;;;;;72.88;43.70;;;;;;;6.35;100.00;101421.13;2613090;36;20034;-70
2021/11/21 16:39:23;;;;;;;50.75;25.80;;;;;;;6.35;100.00;101432.66;2612849;36;20030;-69
2021/11/21 16:41:51;;;;;;;25.60;10.18;;;;;;;6.30;100.00;101430.28;2613190;36;20031;-71
2021/11/21 16:44:20;;;;;;;53.95;27.55;;;;;;;6.19;100.00;101438.09;2612586;36;20077;-71
2021/11/21 16:46:49;;;;;;;32.90;15.98;;;;;;;6.10;100.00;101444.00;2613011;36;20601;-68
2021/11/21 16:49:17;;;;;;;144.00;78.28;;;;;;;5.96;100.00;101443.00;2612701;36;20156;-68
2021/11/21 16:51:46;;;;;;;18.27;7.72;;;;;;;6.00;100.00;101441.00;2612709;36;20122;-68
2021/11/21 16:54:14;;;;;;;52.30;25.30;;;;;;;5.97;100.00;101441.19;2612870;36;20046;-68
2021/11/21 16:56:47;;;;;;;86.05;45.13;;;;;;;5.97;100.00;101443.88;2613550;36;20627;-69
2021/11/21 16:59:16;;;;;;;17.52;6.38;;;;;;;6.03;100.00;101439.97;2612633;36;20565;-69
2021/11/21 17:01:44;;;;;;;12.50;3.15;;;;;;;6.21;100.00;101446.88;2612670;36;20569;-69
2021/11/21 17:04:13;;;;;;;22.88;6.55;;;;;;;6.30;100.00;101449.00;2612458;36;20118;-70
2021/11/21 17:06:41;;;;;;;27.08;13.32;;;;;;;6.31;100.00;101450.69;2612862;36;20537;-68
2021/11/21 17:09:10;;;;;;;16.20;3.40;;;;;;;6.27;100.00;101457.22;2612619;36;20061;-68
2021/11/21 17:11:42;;;;;;;43.05;17.00;;;;;;;6.21;100.00;101456.72;2612805;36;20034;-70
2021/11/21 17:14:13;;;;;;;33.22;14.82;;;;;;;6.21;100.00;101456.72;2613010;36;20527;-71
2021/11/21 17:16:41;;;;;;;29.42;8.40;;;;;;;6.16;100.00;101458.81;2612983;36;20057;-69
2021/11/21 17:19:10;;;;;;;43.67;20.65;;;;;;;6.11;100.00;101464.41;2612405;36;20153;-69
2021/11/21 17:21:38;;;;;;;33.55;19.45;;;;;;;6.04;100.00;101465.75;2612701;36;20162;-69
2021/11/21 17:24:07;;;;;;;21.90;9.35;;;;;;;5.94;100.00;101471.59;2612940;36;20065;-67
2021/11/21 17:26:35;;;;;;;36.08;11.75;;;;;;;5.89;100.00;101473.69;2612714;36;20546;-71
2021/11/21 17:29:04;;;;;;;18.35;5.05;;;;;;;5.93;100.00;101469.03;2612346;36;20039;-68
2021/11/21 17:31:38;;;;;;;19.17;3.92;;;;;;;5.90;100.00;101478.09;2612751;36;20052;-69
2021/11/21 17:34:06;;;;;;;29.80;15.00;;;;;;;5.78;100.00;101481.47;2612549;36;20045;-70
2021/11/21 17:36:35;;;;;;;15.30;3.92;;;;;;;5.82;100.00;101488.38;2612539;36;20035;-70
2021/11/21 17:39:03;;;;;;;16.52;3.00;;;;;;;5.80;100.00;101490.28;2613034;36;20478;-68
2021/11/21 17:41:32;;;;;;;12.52;3.78;;;;;;;5.71;100.00;101493.47;2612553;36;20077;-69
2021/11/21 17:44:02;;;;;;;17.25;6.82;;;;;;;5.69;100.00;101490.03;2612899;36;20034;-69
2021/11/21 17:46:31;;;;;;;13.30;3.97;;;;;;;5.49;100.00;101507.19;2612877;36;20041;-68
2021/11/21 17:49:02;;;;;;;16.58;8.00;;;;;;;5.31;100.00;101501.94;2612297;36;20149;-69
2021/11/21 17:51:30;;;;;;;28.38;13.60;;;;;;;5.20;100.00;101513.22;2612659;36;20121;-68
2021/11/21 17:53:59;;;;;;;30.48;12.98;;;;;;;5.10;100.00;101514.69;2613000;36;20200;-68
2021/11/21 17:56:27;;;;;;;16.38;8.30;;;;;;;5.05;100.00;101519.38;2612897;36;20081;-70
2021/11/21 17:58:56;;;;;;;51.38;19.58;;;;;;;5.01;100.00;101523.19;2613221;36;20884;-69
2021/11/21 18:01:24;;;;;;;254.80;105.72;;;;;;;4.85;100.00;101523.16;2612435;36;20057;-69
2021/11/21 18:03:53;;;;;;;41.47;17.13;;;;;;;4.85;100.00;101526.69;2612460;36;20030;-68
2021/11/21 18:06:23;;;;;;;37.55;14.98;;;;;;;4.91;100.00;101526.34;2612313;36;20042;-69